Aérodrome :
LOGIN :

S'inscrire | Disclaimer

   EN    FR    IT 

 










Légende :    VFR   VFR Marginal   IFR   IFR Intensif   IFR Très Intensif
Visi : 
Plafond : 
>= 8 km
>= 3000ft
5 à 8 km
1000 à 3000 ft
1500m à 5 km
500 à 1000 ft
800 à 1500m
200 à 500 ft
< 800m
< 200 ft
Symboles :   Orages  Brouillard  Fortes neiges  Fortes précipitations  Vent > 20 kt
SIGMETs :   Divers  Orages  Givrage  Turbulence  Onde Orograph.  Cendres Volcan.







- Altitude de l'aérodrome : 38 ft
- Code IATA : ADX


EGQL - RAF Leuchars

DERNIER METAR :
  • 152050Z 22010KT CAVOK 09/04 Q1012 BLU

METARs EXPIRÉS :
  • 151950Z 25014KT CAVOK 09/04 Q1013 BLU
  • 151850Z 28007G17KT CAVOK 09/04 Q1014 BLU

TAF TAF EGQL
Valide du 15 à 21h jusqu'au 16 à 06h UTC


151947Z 1521/1606 21012KT 9999 FEW035
TEMPO 1521/1606 23018G28KT -RA SCT016
Pas de NOTAMs connus pour ce terrain.
1 SIGMET publié pour la FIR Scottish (EGPX) :
 
Onde orographique forte
EGPX SIGMET 06 VALID 151900/152300 EGRR
EGPX SCOTTISH FIR SEV MTW FCST WI N5715 W00546 - N5802 W00405 - N5809 W00116 - N5500 W00027 - N5500 W00504 - N5715 W00546 FL030/260 STNR WKN=



MET'MAP, la Météo Aéronautique d'un coup d'oeil ! - Copyright ORBIFLY Décembre 2007 - Disclaimer

ORBIFLY MET'MAP TEAM :

Programmation & Développement : Alexandra Zaïnal
Conception & Développement : Baudouin d'Aumeries
Co-Programmation & Développement : Marc-Olivier Méhu
Soutien technique & logistique : Manuel Goepfert

Contact : metmap@orbifly.com




SOURCES & CREDITS :

   NOAA